sensor_id;sensor_type;location;lat;lon;timestamp;P1;durP1;ratioP1;P2;durP2;ratioP2
15889;SDS011;8043;49.388;12.128;2024-01-27T00:03:20;9.85;;;1.35;;
15889;SDS011;8043;49.388;12.128;2024-01-27T00:13:24;1.30;;;1.22;;
15889;SDS011;8043;49.388;12.128;2024-01-27T00:18:27;0.98;;;0.98;;
15889;SDS011;8043;49.388;12.128;2024-01-27T00:33:36;10.98;;;1.27;;
15889;SDS011;8043;49.388;12.128;2024-01-27T00:38:38;1.98;;;1.67;;
15889;SDS011;8043;49.388;12.128;2024-01-27T00:48:42;1.20;;;1.10;;
15889;SDS011;8043;49.388;12.128;2024-01-27T00:53:45;0.70;;;0.70;;
15889;SDS011;8043;49.388;12.128;2024-01-27T00:58:47;1.45;;;1.02;;
15889;SDS011;8043;49.388;12.128;2024-01-27T01:03:50;1.10;;;0.93;;
15889;SDS011;8043;49.388;12.128;2024-01-27T01:08:52;1.98;;;1.42;;
15889;SDS011;8043;49.388;12.128;2024-01-27T01:13:55;1.10;;;1.10;;
15889;SDS011;8043;49.388;12.128;2024-01-27T01:18:57;1.00;;;0.95;;
15889;SDS011;8043;49.388;12.128;2024-01-27T01:24:00;1.40;;;1.10;;
15889;SDS011;8043;49.388;12.128;2024-01-27T01:29:02;2.45;;;1.25;;
15889;SDS011;8043;49.388;12.128;2024-01-27T01:34:05;1.72;;;1.47;;
15889;SDS011;8043;49.388;12.128;2024-01-27T01:39:07;1.55;;;1.30;;
15889;SDS011;8043;49.388;12.128;2024-01-27T01:44:11;9.35;;;1.47;;
15889;SDS011;8043;49.388;12.128;2024-01-27T01:54:15;8.25;;;1.05;;
15889;SDS011;8043;49.388;12.128;2024-01-27T01:59:17;1.35;;;1.17;;
15889;SDS011;8043;49.388;12.128;2024-01-27T02:09:21;2.00;;;1.10;;
15889;SDS011;8043;49.388;12.128;2024-01-27T02:14:23;4.15;;;1.75;;
15889;SDS011;8043;49.388;12.128;2024-01-27T02:19:28;7.67;;;1.42;;
15889;SDS011;8043;49.388;12.128;2024-01-27T02:24:30;5.80;;;2.67;;
15889;SDS011;8043;49.388;12.128;2024-01-27T02:29:33;7.58;;;1.30;;
15889;SDS011;8043;49.388;12.128;2024-01-27T02:39:36;1.35;;;1.17;;
15889;SDS011;8043;49.388;12.128;2024-01-27T02:44:40;2.12;;;1.75;;
15889;SDS011;8043;49.388;12.128;2024-01-27T02:49:43;3.55;;;2.22;;
15889;SDS011;8043;49.388;12.128;2024-01-27T02:54:45;1.55;;;1.12;;
15889;SDS011;8043;49.388;12.128;2024-01-27T02:59:48;1.17;;;1.15;;
15889;SDS011;8043;49.388;12.128;2024-01-27T03:09:52;1.62;;;1.50;;
15889;SDS011;8043;49.388;12.128;2024-01-27T03:14:54;2.20;;;1.17;;
15889;SDS011;8043;49.388;12.128;2024-01-27T03:19:56;17.40;;;2.42;;
15889;SDS011;8043;49.388;12.128;2024-01-27T03:24:59;1.67;;;1.57;;
15889;SDS011;8043;49.388;12.128;2024-01-27T03:30:01;12.78;;;1.70;;
15889;SDS011;8043;49.388;12.128;2024-01-27T03:35:05;1.25;;;1.15;;
15889;SDS011;8043;49.388;12.128;2024-01-27T03:40:08;1.60;;;1.35;;
15889;SDS011;8043;49.388;12.128;2024-01-27T03:45:11;1.40;;;1.30;;
15889;SDS011;8043;49.388;12.128;2024-01-27T03:50:13;3.92;;;0.70;;
15889;SDS011;8043;49.388;12.128;2024-01-27T03:55:16;1.45;;;1.40;;
15889;SDS011;8043;49.388;12.128;2024-01-27T04:00:18;3.42;;;1.45;;
15889;SDS011;8043;49.388;12.128;2024-01-27T04:05:21;1.05;;;0.90;;
15889;SDS011;8043;49.388;12.128;2024-01-27T04:10:23;8.50;;;1.82;;
15889;SDS011;8043;49.388;12.128;2024-01-27T04:15:25;10.93;;;2.17;;
15889;SDS011;8043;49.388;12.128;2024-01-27T04:20:28;6.47;;;2.12;;
15889;SDS011;8043;49.388;12.128;2024-01-27T04:25:30;2.52;;;1.85;;
15889;SDS011;8043;49.388;12.128;2024-01-27T04:30:33;18.77;;;2.33;;
15889;SDS011;8043;49.388;12.128;2024-01-27T04:35:35;1.00;;;0.93;;
15889;SDS011;8043;49.388;12.128;2024-01-27T04:40:37;1.10;;;1.00;;
15889;SDS011;8043;49.388;12.128;2024-01-27T04:45:40;1.30;;;1.20;;
15889;SDS011;8043;49.388;12.128;2024-01-27T04:50:45;1.40;;;1.30;;
15889;SDS011;8043;49.388;12.128;2024-01-27T04:55:48;3.20;;;1.22;;
15889;SDS011;8043;49.388;12.128;2024-01-27T05:00:51;4.60;;;1.90;;
15889;SDS011;8043;49.388;12.128;2024-01-27T05:05:53;2.17;;;1.98;;
15889;SDS011;8043;49.388;12.128;2024-01-27T05:10:55;1.35;;;1.22;;
15889;SDS011;8043;49.388;12.128;2024-01-27T05:15:58;16.35;;;2.58;;
15889;SDS011;8043;49.388;12.128;2024-01-27T05:21:00;5.03;;;1.90;;
15889;SDS011;8043;49.388;12.128;2024-01-27T05:31:06;3.37;;;0.90;;
15889;SDS011;8043;49.388;12.128;2024-01-27T05:36:09;1.52;;;1.42;;
15889;SDS011;8043;49.388;12.128;2024-01-27T05:41:11;2.75;;;1.27;;
15889;SDS011;8043;49.388;12.128;2024-01-27T05:46:14;2.45;;;2.25;;
15889;SDS011;8043;49.388;12.128;2024-01-27T05:51:16;3.25;;;2.50;;
15889;SDS011;8043;49.388;12.128;2024-01-27T05:56:19;6.62;;;2.95;;
15889;SDS011;8043;49.388;12.128;2024-01-27T06:01:24;7.55;;;1.52;;
15889;SDS011;8043;49.388;12.128;2024-01-27T06:06:26;6.47;;;2.90;;
15889;SDS011;8043;49.388;12.128;2024-01-27T06:11:29;2.58;;;1.75;;
15889;SDS011;8043;49.388;12.128;2024-01-27T06:16:32;2.83;;;2.20;;
15889;SDS011;8043;49.388;12.128;2024-01-27T06:21:36;16.73;;;2.05;;
15889;SDS011;8043;49.388;12.128;2024-01-27T06:31:40;7.42;;;1.35;;
15889;SDS011;8043;49.388;12.128;2024-01-27T06:36:42;3.77;;;2.22;;
15889;SDS011;8043;49.388;12.128;2024-01-27T06:41:45;27.13;;;2.90;;
15889;SDS011;8043;49.388;12.128;2024-01-27T06:51:50;1.80;;;1.60;;
15889;SDS011;8043;49.388;12.128;2024-01-27T06:56:53;7.85;;;3.12;;
15889;SDS011;8043;49.388;12.128;2024-01-27T07:06:57;1.60;;;1.50;;
15889;SDS011;8043;49.388;12.128;2024-01-27T07:17:02;7.03;;;1.25;;
15889;SDS011;8043;49.388;12.128;2024-01-27T07:22:05;2.02;;;1.92;;
15889;SDS011;8043;49.388;12.128;2024-01-27T07:27:11;9.05;;;2.92;;
15889;SDS011;8043;49.388;12.128;2024-01-27T07:32:14;3.30;;;2.40;;
15889;SDS011;8043;49.388;12.128;2024-01-27T07:37:17;10.70;;;2.92;;
15889;SDS011;8043;49.388;12.128;2024-01-27T07:42:23;3.33;;;1.92;;
15889;SDS011;8043;49.388;12.128;2024-01-27T07:47:25;3.30;;;2.77;;
15889;SDS011;8043;49.388;12.128;2024-01-27T07:52:27;5.10;;;3.65;;
15889;SDS011;8043;49.388;12.128;2024-01-27T07:57:30;10.00;;;2.27;;
15889;SDS011;8043;49.388;12.128;2024-01-27T08:02:33;2.20;;;2.00;;
15889;SDS011;8043;49.388;12.128;2024-01-27T08:07:35;1.15;;;1.12;;
15889;SDS011;8043;49.388;12.128;2024-01-27T08:12:38;18.50;;;2.72;;
15889;SDS011;8043;49.388;12.128;2024-01-27T08:17:40;4.20;;;2.92;;
15889;SDS011;8043;49.388;12.128;2024-01-27T08:22:42;4.30;;;2.75;;
15889;SDS011;8043;49.388;12.128;2024-01-27T08:27:45;2.40;;;1.92;;
15889;SDS011;8043;49.388;12.128;2024-01-27T08:32:47;4.80;;;2.60;;
15889;SDS011;8043;49.388;12.128;2024-01-27T08:37:50;3.33;;;2.58;;
15889;SDS011;8043;49.388;12.128;2024-01-27T08:42:52;2.22;;;1.62;;
15889;SDS011;8043;49.388;12.128;2024-01-27T08:47:54;14.13;;;2.17;;
15889;SDS011;8043;49.388;12.128;2024-01-27T08:52:57;2.50;;;1.60;;
15889;SDS011;8043;49.388;12.128;2024-01-27T08:57:59;9.85;;;3.05;;
15889;SDS011;8043;49.388;12.128;2024-01-27T09:03:02;6.33;;;1.52;;
15889;SDS011;8043;49.388;12.128;2024-01-27T09:08:07;7.92;;;2.12;;
15889;SDS011;8043;49.388;12.128;2024-01-27T09:13:09;8.33;;;3.65;;
15889;SDS011;8043;49.388;12.128;2024-01-27T09:18:11;21.20;;;2.10;;
15889;SDS011;8043;49.388;12.128;2024-01-27T09:23:15;4.22;;;2.35;;
15889;SDS011;8043;49.388;12.128;2024-01-27T09:28:18;4.20;;;1.52;;
15889;SDS011;8043;49.388;12.128;2024-01-27T09:33:20;14.28;;;1.20;;
15889;SDS011;8043;49.388;12.128;2024-01-27T09:38:23;4.17;;;2.40;;
15889;SDS011;8043;49.388;12.128;2024-01-27T09:43:26;3.58;;;1.62;;
15889;SDS011;8043;49.388;12.128;2024-01-27T09:48:30;9.20;;;2.17;;
15889;SDS011;8043;49.388;12.128;2024-01-27T09:53:33;7.00;;;1.55;;
15889;SDS011;8043;49.388;12.128;2024-01-27T10:03:40;6.42;;;1.75;;
15889;SDS011;8043;49.388;12.128;2024-01-27T10:08:47;8.28;;;2.65;;
15889;SDS011;8043;49.388;12.128;2024-01-27T10:13:55;14.87;;;2.58;;
15889;SDS011;8043;49.388;12.128;2024-01-27T10:19:05;4.58;;;1.62;;
15889;SDS011;8043;49.388;12.128;2024-01-27T10:24:04;13.35;;;3.30;;
15889;SDS011;8043;49.388;12.128;2024-01-27T10:29:07;1.87;;;1.77;;
15889;SDS011;8043;49.388;12.128;2024-01-27T10:34:10;6.12;;;1.35;;
15889;SDS011;8043;49.388;12.128;2024-01-27T10:39:16;9.80;;;1.77;;
15889;SDS011;8043;49.388;12.128;2024-01-27T10:44:20;11.25;;;2.52;;
15889;SDS011;8043;49.388;12.128;2024-01-27T10:49:23;3.92;;;1.80;;
15889;SDS011;8043;49.388;12.128;2024-01-27T10:54:26;8.48;;;3.42;;
15889;SDS011;8043;49.388;12.128;2024-01-27T10:59:29;3.65;;;1.77;;
15889;SDS011;8043;49.388;12.128;2024-01-27T11:04:32;9.65;;;2.35;;
15889;SDS011;8043;49.388;12.128;2024-01-27T11:09:36;9.15;;;1.67;;
15889;SDS011;8043;49.388;12.128;2024-01-27T11:14:40;4.45;;;2.00;;
15889;SDS011;8043;49.388;12.128;2024-01-27T11:19:42;3.60;;;1.10;;
15889;SDS011;8043;49.388;12.128;2024-01-27T11:24:48;16.93;;;2.45;;
15889;SDS011;8043;49.388;12.128;2024-01-27T11:29:50;3.35;;;1.17;;
15889;SDS011;8043;49.388;12.128;2024-01-27T11:40:03;4.85;;;1.82;;
15889;SDS011;8043;49.388;12.128;2024-01-27T11:45:08;10.98;;;3.08;;
15889;SDS011;8043;49.388;12.128;2024-01-27T11:50:11;13.80;;;1.77;;
15889;SDS011;8043;49.388;12.128;2024-01-27T12:00:16;8.28;;;1.77;;
15889;SDS011;8043;49.388;12.128;2024-01-27T12:05:20;9.65;;;1.90;;
15889;SDS011;8043;49.388;12.128;2024-01-27T12:10:23;5.90;;;1.65;;
15889;SDS011;8043;49.388;12.128;2024-01-27T12:15:25;5.15;;;1.65;;
15889;SDS011;8043;49.388;12.128;2024-01-27T12:20:30;8.43;;;1.65;;
15889;SDS011;8043;49.388;12.128;2024-01-27T12:25:33;11.05;;;2.25;;
15889;SDS011;8043;49.388;12.128;2024-01-27T12:30:56;11.40;;;2.58;;
15889;SDS011;8043;49.388;12.128;2024-01-27T12:36:01;8.90;;;1.50;;
15889;SDS011;8043;49.388;12.128;2024-01-27T12:41:04;8.80;;;2.33;;
15889;SDS011;8043;49.388;12.128;2024-01-27T12:46:07;11.35;;;2.42;;
15889;SDS011;8043;49.388;12.128;2024-01-27T12:51:09;10.78;;;2.62;;
15889;SDS011;8043;49.388;12.128;2024-01-27T12:56:18;8.63;;;1.72;;
15889;SDS011;8043;49.388;12.128;2024-01-27T13:01:22;9.95;;;2.10;;
15889;SDS011;8043;49.388;12.128;2024-01-27T13:06:24;7.85;;;1.80;;
15889;SDS011;8043;49.388;12.128;2024-01-27T13:16:31;5.00;;;1.35;;
15889;SDS011;8043;49.388;12.128;2024-01-27T13:21:38;7.67;;;2.05;;
15889;SDS011;8043;49.388;12.128;2024-01-27T13:26:41;4.45;;;1.50;;
15889;SDS011;8043;49.388;12.128;2024-01-27T13:36:46;5.28;;;1.70;;
15889;SDS011;8043;49.388;12.128;2024-01-27T13:41:48;11.20;;;1.75;;
15889;SDS011;8043;49.388;12.128;2024-01-27T13:46:51;3.50;;;1.65;;
15889;SDS011;8043;49.388;12.128;2024-01-27T13:51:54;10.40;;;1.72;;
15889;SDS011;8043;49.388;12.128;2024-01-27T13:56:56;5.25;;;2.10;;
15889;SDS011;8043;49.388;12.128;2024-01-27T14:02:00;4.72;;;1.67;;
15889;SDS011;8043;49.388;12.128;2024-01-27T14:07:03;4.70;;;1.30;;
15889;SDS011;8043;49.388;12.128;2024-01-27T14:12:08;2.80;;;1.20;;
15889;SDS011;8043;49.388;12.128;2024-01-27T14:17:10;5.50;;;1.52;;
15889;SDS011;8043;49.388;12.128;2024-01-27T14:22:13;0.82;;;0.53;;
15889;SDS011;8043;49.388;12.128;2024-01-27T14:27:15;5.92;;;1.22;;
15889;SDS011;8043;49.388;12.128;2024-01-27T14:32:18;3.62;;;1.50;;
15889;SDS011;8043;49.388;12.128;2024-01-27T14:37:21;13.70;;;1.75;;
15889;SDS011;8043;49.388;12.128;2024-01-27T14:42:23;7.72;;;1.25;;
15889;SDS011;8043;49.388;12.128;2024-01-27T14:47:26;7.12;;;1.37;;
15889;SDS011;8043;49.388;12.128;2024-01-27T14:52:29;2.83;;;1.07;;
15889;SDS011;8043;49.388;12.128;2024-01-27T14:57:32;6.28;;;1.75;;
15889;SDS011;8043;49.388;12.128;2024-01-27T15:02:35;6.62;;;1.30;;
15889;SDS011;8043;49.388;12.128;2024-01-27T15:07:37;5.40;;;1.77;;
15889;SDS011;8043;49.388;12.128;2024-01-27T15:12:40;7.12;;;1.37;;
15889;SDS011;8043;49.388;12.128;2024-01-27T15:17:42;5.83;;;2.05;;
15889;SDS011;8043;49.388;12.128;2024-01-27T15:22:45;4.30;;;1.47;;
15889;SDS011;8043;49.388;12.128;2024-01-27T15:27:48;8.28;;;2.25;;
15889;SDS011;8043;49.388;12.128;2024-01-27T15:32:51;9.78;;;2.80;;
15889;SDS011;8043;49.388;12.128;2024-01-27T15:37:54;8.58;;;1.75;;
15889;SDS011;8043;49.388;12.128;2024-01-27T15:42:56;1.42;;;1.32;;
15889;SDS011;8043;49.388;12.128;2024-01-27T15:47:59;5.95;;;1.42;;
15889;SDS011;8043;49.388;12.128;2024-01-27T15:53:03;3.00;;;1.45;;
15889;SDS011;8043;49.388;12.128;2024-01-27T15:58:05;6.97;;;2.33;;
15889;SDS011;8043;49.388;12.128;2024-01-27T16:03:08;4.05;;;1.67;;
15889;SDS011;8043;49.388;12.128;2024-01-27T16:08:11;8.00;;;2.47;;
15889;SDS011;8043;49.388;12.128;2024-01-27T16:13:13;18.87;;;2.77;;
15889;SDS011;8043;49.388;12.128;2024-01-27T16:18:17;3.08;;;1.52;;
15889;SDS011;8043;49.388;12.128;2024-01-27T16:23:19;6.17;;;2.62;;
15889;SDS011;8043;49.388;12.128;2024-01-27T16:28:22;24.23;;;1.72;;
15889;SDS011;8043;49.388;12.128;2024-01-27T16:33:26;3.20;;;1.98;;
15889;SDS011;8043;49.388;12.128;2024-01-27T16:43:30;1.70;;;1.37;;
15889;SDS011;8043;49.388;12.128;2024-01-27T16:48:33;3.58;;;1.55;;
15889;SDS011;8043;49.388;12.128;2024-01-27T16:53:36;5.20;;;1.42;;
15889;SDS011;8043;49.388;12.128;2024-01-27T16:58:38;12.35;;;2.92;;
15889;SDS011;8043;49.388;12.128;2024-01-27T17:03:42;23.60;;;4.22;;
15889;SDS011;8043;49.388;12.128;2024-01-27T17:13:48;10.78;;;4.55;;
15889;SDS011;8043;49.388;12.128;2024-01-27T17:18:51;3.20;;;2.52;;
15889;SDS011;8043;49.388;12.128;2024-01-27T17:28:55;15.53;;;4.25;;
15889;SDS011;8043;49.388;12.128;2024-01-27T17:33:58;7.75;;;3.95;;
15889;SDS011;8043;49.388;12.128;2024-01-27T17:39:00;5.35;;;3.40;;
15889;SDS011;8043;49.388;12.128;2024-01-27T17:44:03;8.25;;;4.50;;
15889;SDS011;8043;49.388;12.128;2024-01-27T17:49:05;8.90;;;4.10;;
15889;SDS011;8043;49.388;12.128;2024-01-27T17:54:10;12.07;;;4.90;;
15889;SDS011;8043;49.388;12.128;2024-01-27T17:59:13;14.00;;;5.17;;
15889;SDS011;8043;49.388;12.128;2024-01-27T18:04:16;16.30;;;6.53;;
15889;SDS011;8043;49.388;12.128;2024-01-27T18:09:19;17.27;;;4.90;;
15889;SDS011;8043;49.388;12.128;2024-01-27T18:14:21;20.80;;;6.10;;
15889;SDS011;8043;49.388;12.128;2024-01-27T18:19:26;17.20;;;7.58;;
15889;SDS011;8043;49.388;12.128;2024-01-27T18:24:28;11.45;;;3.80;;
15889;SDS011;8043;49.388;12.128;2024-01-27T18:39:35;35.63;;;12.55;;
15889;SDS011;8043;49.388;12.128;2024-01-27T18:44:38;10.75;;;4.60;;
15889;SDS011;8043;49.388;12.128;2024-01-27T18:49:42;3.60;;;2.60;;
15889;SDS011;8043;49.388;12.128;2024-01-27T18:54:44;5.12;;;2.45;;
15889;SDS011;8043;49.388;12.128;2024-01-27T18:59:47;4.92;;;2.62;;
15889;SDS011;8043;49.388;12.128;2024-01-27T19:04:50;1.35;;;1.22;;
15889;SDS011;8043;49.388;12.128;2024-01-27T19:09:53;2.85;;;1.90;;
15889;SDS011;8043;49.388;12.128;2024-01-27T19:14:56;7.62;;;3.58;;
15889;SDS011;8043;49.388;12.128;2024-01-27T19:25:00;9.45;;;1.87;;
15889;SDS011;8043;49.388;12.128;2024-01-27T19:30:03;7.95;;;2.83;;
15889;SDS011;8043;49.388;12.128;2024-01-27T19:35:07;3.10;;;1.67;;
15889;SDS011;8043;49.388;12.128;2024-01-27T19:40:10;14.70;;;6.97;;
15889;SDS011;8043;49.388;12.128;2024-01-27T19:45:13;17.77;;;7.25;;
15889;SDS011;8043;49.388;12.128;2024-01-27T19:50:15;17.90;;;8.18;;
15889;SDS011;8043;49.388;12.128;2024-01-27T19:55:29;11.28;;;5.28;;
15889;SDS011;8043;49.388;12.128;2024-01-27T20:05:33;4.10;;;3.05;;
15889;SDS011;8043;49.388;12.128;2024-01-27T20:10:36;10.32;;;3.58;;
15889;SDS011;8043;49.388;12.128;2024-01-27T20:15:39;6.03;;;3.35;;
15889;SDS011;8043;49.388;12.128;2024-01-27T20:20:41;9.00;;;3.25;;
15889;SDS011;8043;49.388;12.128;2024-01-27T20:30:45;5.50;;;4.35;;
15889;SDS011;8043;49.388;12.128;2024-01-27T20:40:49;10.43;;;5.33;;
15889;SDS011;8043;49.388;12.128;2024-01-27T20:45:52;6.42;;;4.50;;
15889;SDS011;8043;49.388;12.128;2024-01-27T20:55:56;18.20;;;3.58;;
15889;SDS011;8043;49.388;12.128;2024-01-27T21:00:58;7.03;;;3.50;;
15889;SDS011;8043;49.388;12.128;2024-01-27T21:06:01;13.65;;;5.10;;
15889;SDS011;8043;49.388;12.128;2024-01-27T21:11:04;4.20;;;2.62;;
15889;SDS011;8043;49.388;12.128;2024-01-27T21:16:08;10.50;;;1.98;;
15889;SDS011;8043;49.388;12.128;2024-01-27T21:21:11;9.55;;;3.60;;
15889;SDS011;8043;49.388;12.128;2024-01-27T21:31:17;5.37;;;3.22;;
15889;SDS011;8043;49.388;12.128;2024-01-27T21:41:21;5.83;;;2.50;;
15889;SDS011;8043;49.388;12.128;2024-01-27T21:51:25;3.92;;;3.08;;
15889;SDS011;8043;49.388;12.128;2024-01-27T21:56:28;2.60;;;1.72;;
15889;SDS011;8043;49.388;12.128;2024-01-27T22:01:33;3.08;;;2.75;;
15889;SDS011;8043;49.388;12.128;2024-01-27T22:06:39;3.67;;;3.00;;
15889;SDS011;8043;49.388;12.128;2024-01-27T22:11:42;9.68;;;5.28;;
15889;SDS011;8043;49.388;12.128;2024-01-27T22:16:46;12.53;;;3.67;;
15889;SDS011;8043;49.388;12.128;2024-01-27T22:21:50;6.33;;;4.35;;
15889;SDS011;8043;49.388;12.128;2024-01-27T22:26:54;4.30;;;3.52;;
15889;SDS011;8043;49.388;12.128;2024-01-27T22:31:58;13.38;;;2.42;;
15889;SDS011;8043;49.388;12.128;2024-01-27T22:37:01;3.55;;;2.55;;
15889;SDS011;8043;49.388;12.128;2024-01-27T22:42:03;9.03;;;2.35;;
15889;SDS011;8043;49.388;12.128;2024-01-27T22:47:06;8.98;;;3.37;;
15889;SDS011;8043;49.388;12.128;2024-01-27T22:52:09;7.60;;;2.27;;
15889;SDS011;8043;49.388;12.128;2024-01-27T22:57:12;5.78;;;3.02;;
15889;SDS011;8043;49.388;12.128;2024-01-27T23:02:14;1.67;;;1.57;;
15889;SDS011;8043;49.388;12.128;2024-01-27T23:07:16;5.42;;;2.10;;
15889;SDS011;8043;49.388;12.128;2024-01-27T23:12:19;7.92;;;3.22;;
15889;SDS011;8043;49.388;12.128;2024-01-27T23:17:21;1.92;;;1.80;;
15889;SDS011;8043;49.388;12.128;2024-01-27T23:22:24;5.33;;;2.30;;
15889;SDS011;8043;49.388;12.128;2024-01-27T23:27:27;2.67;;;2.47;;
15889;SDS011;8043;49.388;12.128;2024-01-27T23:32:29;5.97;;;3.12;;
15889;SDS011;8043;49.388;12.128;2024-01-27T23:42:33;8.80;;;4.60;;
15889;SDS011;8043;49.388;12.128;2024-01-27T23:47:37;3.12;;;2.80;;
15889;SDS011;8043;49.388;12.128;2024-01-27T23:52:40;7.67;;;2.72;;
15889;SDS011;8043;49.388;12.128;2024-01-27T23:57:44;8.03;;;2.98;;
